Etusivu
METAR-TAF:

METAR-TAF

Lentoasemat :

Clovis, New Mexico, Yhdysvallat

Leveyspiiri: 34-26N, Pituuspiiri: 103-05W, korkeus merenpinnasta: 1284 m

Tämänhetkinen sää

Tämä raportti tehtiin 26 minuuttia sitten, kello 03.56 UTC
Tuuli 8 kn etelästä/kaakosta
Lämpötila 24°C
Kosteus 44%
Ilmanpaine 1024 hPa
Näkyvyys: 16.1 km
selkeää

METAR: KCVN 140356Z AUTO 16008KT 10SM CLR 24/11 A3025 RMK AO2 SLP195 T02390106 $

Aika: 22:22 (04:22 UTC)


TAF: puuttuu

Säähavainnot ja -ennusteet yli 4000 lentoasemalta (METAR- ja TAF-raportit).

Käytössä olevat sääasemat on merkitty karttaan keltaisilla ja punaisilla pisteillä.

Aseta hiiri pisteen päälle nähdäksesi sääaseman nimen.

Klikkaa sitten nähdäksesi säähavainnot ja -ennusteet.

Kartan vaihtaminen: klikkaa mustalla rastilla varustettuja vihreitä pisteitä, niin voit zoomata sisään; viivalla varustettua vihreää pistettä, niin voit zoomata ulos tai vihreitä nuolia, niin pääset viereisille kartoille.


METAR-TAF: